Time;durP1;ratioP1;P1;durP2;ratioP2;P2;SDS_P1;SDS_P2;PMS_P1;PMS_P2;Temp;Humidity;BMP_temperature;BMP_pressure;BME280_temperature;BME280_humidity;BME280_pressure;Samples;Min_cycle;Max_cycle;Signal;HPM_P1;HPM_P2
2021/08/09 00:02:11;;;;;;;6.38;2.05;;;;;;;;;;5108932;28;20047;-70
2021/08/09 00:04:39;;;;;;;7.15;2.10;;;;;;;;;;5105220;28;20036;-70
2021/08/09 00:07:06;;;;;;;7.35;2.00;;;;;;;;;;5100708;28;20402;-70
2021/08/09 00:09:32;;;;;;;10.60;1.98;;;;;;;;;;5102858;28;20048;-70
2021/08/09 00:12:00;;;;;;;7.85;1.85;;;;;;;;;;5107419;28;20046;-70
2021/08/09 00:14:26;;;;;;;7.53;1.83;;;;;;;;;;5108512;28;20094;-70
2021/08/09 00:16:52;;;;;;;5.78;1.60;;;;;;;;;;5109276;28;20047;-70
2021/08/09 00:19:18;;;;;;;3.97;1.40;;;;;;;;;;5110142;28;20032;-70
2021/08/09 00:21:45;;;;;;;8.48;1.60;;;;;;;;;;5108169;28;20058;-70
2021/08/09 00:24:11;;;;;;;9.43;1.50;;;;;;;;;;5109646;28;20111;-70
2021/08/09 00:26:38;;;;;;;7.20;1.67;;;;;;;;;;5105603;28;20134;-70
2021/08/09 00:29:04;;;;;;;6.00;1.88;;;;;;;;;;5102899;28;20100;-70
2021/08/09 00:31:31;;;;;;;6.53;1.67;;;;;;;;;;5105518;28;20516;-70
2021/08/09 00:33:57;;;;;;;6.63;1.45;;;;;;;;;;5109642;27;20491;-70
2021/08/09 00:36:23;;;;;;;6.00;1.63;;;;;;;;;;5105872;28;20050;-70
2021/08/09 00:38:49;;;;;;;5.20;1.67;;;;;;;;;;5106246;28;20043;-70
2021/08/09 00:41:16;;;;;;;10.30;2.67;;;;;;;;;;5106188;28;20309;-70
2021/08/09 00:43:42;;;;;;;4.32;1.80;;;;;;;;;;5104295;28;20048;-70
2021/08/09 00:46:09;;;;;;;9.40;2.40;;;;;;;;;;5103450;28;20048;-70
2021/08/09 00:48:35;;;;;;;10.52;2.88;;;;;;;;;;5104501;28;20036;-70
2021/08/09 00:51:03;;;;;;;8.68;2.60;;;;;;;;;;5102147;28;20130;-70
2021/08/09 00:53:29;;;;;;;15.10;3.20;;;;;;;;;;5134941;27;20036;-70
2021/08/09 00:55:55;;;;;;;9.30;3.80;;;;;;;;;;5109201;28;20464;-70
2021/08/09 00:58:22;;;;;;;9.80;3.72;;;;;;;;;;5110003;28;20035;-70
2021/08/09 01:00:48;;;;;;;8.52;3.53;;;;;;;;;;5108750;28;20104;-70
2021/08/09 01:03:15;;;;;;;8.23;4.05;;;;;;;;;;5107008;28;20055;-70
2021/08/09 01:05:42;;;;;;;8.65;3.72;;;;;;;;;;5102127;28;20032;-70
2021/08/09 01:08:15;;;;;;;9.73;3.42;;;;;;;;;;5106420;28;20470;-70
2021/08/09 01:10:45;;;;;;;9.30;3.08;;;;;;;;;;5109612;28;20039;-70
2021/08/09 01:13:21;;;;;;;6.22;3.00;;;;;;;;;;5108416;28;20047;-70
2021/08/09 01:15:49;;;;;;;8.15;2.80;;;;;;;;;;5103924;28;20044;-70
2021/08/09 01:18:16;;;;;;;7.35;3.03;;;;;;;;;;5108008;28;20051;-70
2021/08/09 01:20:50;;;;;;;9.45;3.42;;;;;;;;;;5105726;28;20047;-70
2021/08/09 01:23:28;;;;;;;5.65;2.90;;;;;;;;;;5106307;28;20104;-70
2021/08/09 01:25:57;;;;;;;8.77;4.10;;;;;;;;;;5100987;28;20078;-70
2021/08/09 01:28:26;;;;;;;10.93;3.33;;;;;;;;;;5110003;28;20081;-70
2021/08/09 01:30:55;;;;;;;9.75;4.22;;;;;;;;;;5107831;28;20196;-70
2021/08/09 01:33:23;;;;;;;9.57;4.15;;;;;;;;;;5109757;28;20044;-70
2021/08/09 01:35:51;;;;;;;11.07;5.55;;;;;;;;;;5103837;28;20490;-70
2021/08/09 01:38:18;;;;;;;18.02;6.45;;;;;;;;;;5106614;28;20039;-70
2021/08/09 01:40:46;;;;;;;22.42;7.70;;;;;;;;;;5136712;27;20039;-70
2021/08/09 01:43:15;;;;;;;15.60;7.00;;;;;;;;;;5106207;28;20054;-70
2021/08/09 01:45:42;;;;;;;15.65;6.85;;;;;;;;;;5102261;28;20036;-70
2021/08/09 01:48:09;;;;;;;24.40;7.20;;;;;;;;;;5108459;28;20068;-70
2021/08/09 01:50:36;;;;;;;21.50;6.30;;;;;;;;;;5108585;28;20503;-70
2021/08/09 01:53:03;;;;;;;16.60;6.88;;;;;;;;;;5106205;28;20040;-70
2021/08/09 01:55:29;;;;;;;16.95;6.10;;;;;;;;;;5105200;28;20049;-70
2021/08/09 01:57:56;;;;;;;28.85;7.00;;;;;;;;;;5106946;28;20170;-70
2021/08/09 02:00:22;;;;;;;19.67;7.22;;;;;;;;;;5104877;28;20471;-70
2021/08/09 02:02:51;;;;;;;13.07;5.50;;;;;;;;;;5104320;27;20052;-70
2021/08/09 02:05:18;;;;;;;21.95;7.53;;;;;;;;;;5109436;28;20046;-70
2021/08/09 02:07:46;;;;;;;14.38;6.25;;;;;;;;;;5107145;28;20071;-70
2021/08/09 02:10:16;;;;;;;14.43;6.70;;;;;;;;;;5102037;28;20055;-70
2021/08/09 02:12:48;;;;;;;20.85;6.03;;;;;;;;;;5105832;28;20059;-70
2021/08/09 02:15:17;;;;;;;22.30;7.45;;;;;;;;;;5104059;28;20043;-70
2021/08/09 02:17:47;;;;;;;14.25;6.22;;;;;;;;;;5106767;28;20093;-70
2021/08/09 02:20:20;;;;;;;10.73;5.00;;;;;;;;;;5105821;28;20047;-70
2021/08/09 02:22:49;;;;;;;26.63;7.00;;;;;;;;;;5104854;28;20051;-70
2021/08/09 02:25:16;;;;;;;15.73;6.63;;;;;;;;;;5105158;28;20096;-70
2021/08/09 02:27:44;;;;;;;14.68;7.28;;;;;;;;;;5105432;28;20059;-70
2021/08/09 02:30:12;;;;;;;16.23;7.22;;;;;;;;;;5098815;28;20039;-70
2021/08/09 02:32:39;;;;;;;14.38;7.20;;;;;;;;;;5102365;28;20087;-70
2021/08/09 02:35:06;;;;;;;13.05;6.40;;;;;;;;;;5105406;28;20311;-69
2021/08/09 02:37:33;;;;;;;13.82;7.63;;;;;;;;;;5101713;28;20043;-70
2021/08/09 02:40:00;;;;;;;15.65;7.55;;;;;;;;;;5102477;28;20126;-70
2021/08/09 02:42:27;;;;;;;15.65;8.07;;;;;;;;;;5107004;28;20043;-70
2021/08/09 02:44:53;;;;;;;14.60;7.63;;;;;;;;;;5102811;28;20063;-70
2021/08/09 02:47:21;;;;;;;17.10;8.52;;;;;;;;;;5106349;28;20134;-70
2021/08/09 02:49:48;;;;;;;12.60;7.07;;;;;;;;;;5102234;28;20055;-70
2021/08/09 02:52:15;;;;;;;16.30;7.10;;;;;;;;;;5101930;28;20036;-70
2021/08/09 02:54:45;;;;;;;20.13;8.50;;;;;;;;;;5101027;28;20065;-69
2021/08/09 02:57:12;;;;;;;17.58;8.77;;;;;;;;;;5102861;28;20517;-70
2021/08/09 02:59:39;;;;;;;22.50;10.23;;;;;;;;;;5101066;28;20032;-70
2021/08/09 03:02:07;;;;;;;22.17;9.85;;;;;;;;;;5105614;28;20550;-70
2021/08/09 03:04:34;;;;;;;26.23;7.95;;;;;;;;;;5107060;28;20088;-70
2021/08/09 03:07:03;;;;;;;18.90;9.13;;;;;;;;;;5103889;28;20058;-70
2021/08/09 03:09:29;;;;;;;27.52;9.90;;;;;;;;;;5105899;28;20036;-70
2021/08/09 03:11:56;;;;;;;21.35;10.60;;;;;;;;;;5103643;28;20048;-70
2021/08/09 03:14:23;;;;;;;24.88;10.75;;;;;;;;;;5102136;28;20456;-69
2021/08/09 03:16:49;;;;;;;23.83;10.82;;;;;;;;;;5096693;28;20063;-70
2021/08/09 03:19:15;;;;;;;29.65;12.27;;;;;;;;;;5105290;28;20052;-70
2021/08/09 03:21:48;;;;;;;25.65;11.60;;;;;;;;;;5103174;28;20044;-69
2021/08/09 03:24:15;;;;;;;20.80;9.70;;;;;;;;;;5105452;28;20107;-70
2021/08/09 03:26:41;;;;;;;23.55;9.55;;;;;;;;;;5106132;28;20036;-70
2021/08/09 03:29:07;;;;;;;23.52;12.05;;;;;;;;;;5104832;28;20040;-70
2021/08/09 03:31:33;;;;;;;27.40;13.35;;;;;;;;;;5101627;28;20047;-70
2021/08/09 03:33:59;;;;;;;30.98;15.35;;;;;;;;;;5103675;28;20070;-69
2021/08/09 03:36:26;;;;;;;41.75;18.58;;;;;;;;;;5100510;28;20444;-70
2021/08/09 03:38:52;;;;;;;46.00;18.38;;;;;;;;;;5104295;28;20135;-69
2021/08/09 03:41:18;;;;;;;46.88;20.17;;;;;;;;;;5108621;28;20027;-69
2021/08/09 03:43:44;;;;;;;33.47;16.35;;;;;;;;;;5111708;27;20051;-69
2021/08/09 03:46:11;;;;;;;35.10;16.98;;;;;;;;;;5110255;28;20376;-70
2021/08/09 03:48:37;;;;;;;38.42;16.55;;;;;;;;;;5109748;28;20047;-69
2021/08/09 03:51:04;;;;;;;46.25;17.73;;;;;;;;;;5108784;28;20036;-70
2021/08/09 03:53:30;;;;;;;47.40;17.38;;;;;;;;;;5107672;28;20051;-70
2021/08/09 03:55:56;;;;;;;47.50;17.38;;;;;;;;;;5104640;28;20060;-70
2021/08/09 03:58:22;;;;;;;44.47;15.23;;;;;;;;;;5111389;28;20101;-70
2021/08/09 04:00:49;;;;;;;50.60;16.77;;;;;;;;;;5109282;28;20442;-70
2021/08/09 04:03:15;;;;;;;46.83;14.07;;;;;;;;;;5105791;28;20040;-70
2021/08/09 04:05:41;;;;;;;47.45;14.73;;;;;;;;;;5107139;28;20040;-70
2021/08/09 04:08:07;;;;;;;51.17;15.20;;;;;;;;;;5106633;28;20451;-70
2021/08/09 04:10:34;;;;;;;39.03;13.95;;;;;;;;;;5103349;28;20044;-70
2021/08/09 04:13:00;;;;;;;53.95;14.35;;;;;;;;;;5104605;28;20491;-70
2021/08/09 04:15:26;;;;;;;40.65;14.00;;;;;;;;;;5132546;27;20712;-70
2021/08/09 04:17:52;;;;;;;41.90;13.25;;;;;;;;;;5105936;28;20077;-70
2021/08/09 04:20:19;;;;;;;50.08;14.25;;;;;;;;;;5107752;27;20067;-70
2021/08/09 04:22:45;;;;;;;40.85;14.15;;;;;;;;;;5099583;28;20044;-70
2021/08/09 04:25:11;;;;;;;44.15;14.63;;;;;;;;;;5102115;28;20044;-70
2021/08/09 04:27:37;;;;;;;58.03;16.30;;;;;;;;;;5106648;28;20070;-70
2021/08/09 04:30:04;;;;;;;49.35;15.05;;;;;;;;;;5101065;28;20050;-70
2021/08/09 04:32:45;;;;;;;43.38;14.60;;;;;;;;;;5105569;28;20052;-70
2021/08/09 04:35:12;;;;;;;35.15;14.05;;;;;;;;;;5105458;28;20047;-70
2021/08/09 04:37:39;;;;;;;39.88;14.40;;;;;;;;;;5136435;27;20047;-70
2021/08/09 04:40:06;;;;;;;34.97;12.18;;;;;;;;;;5104138;28;20100;-70
2021/08/09 04:42:32;;;;;;;31.50;12.00;;;;;;;;;;5106607;28;20136;-70
2021/08/09 04:44:59;;;;;;;26.70;10.43;;;;;;;;;;5107852;28;20039;-69
2021/08/09 04:47:26;;;;;;;32.92;9.98;;;;;;;;;;5104393;28;20047;-69
2021/08/09 04:49:53;;;;;;;27.30;9.60;;;;;;;;;;5104044;28;20077;-70
2021/08/09 04:52:19;;;;;;;19.38;8.15;;;;;;;;;;5108863;28;20054;-69
2021/08/09 04:54:46;;;;;;;20.45;9.30;;;;;;;;;;5106403;28;20440;-69
2021/08/09 04:57:12;;;;;;;20.13;8.80;;;;;;;;;;5108555;28;20045;-70
2021/08/09 04:59:38;;;;;;;24.98;9.40;;;;;;;;;;5104147;28;20484;-70
2021/08/09 05:02:04;;;;;;;18.17;7.85;;;;;;;;;;5103030;28;20042;-69
2021/08/09 05:04:31;;;;;;;22.25;9.00;;;;;;;;;;5104057;28;20048;-69
2021/08/09 05:06:57;;;;;;;25.48;10.60;;;;;;;;;;5106148;28;20049;-69
2021/08/09 05:09:23;;;;;;;20.65;9.80;;;;;;;;;;5106076;28;20475;-70
2021/08/09 05:11:49;;;;;;;25.02;9.90;;;;;;;;;;5132658;27;20039;-69
2021/08/09 05:14:16;;;;;;;29.75;10.80;;;;;;;;;;5101638;27;20060;-70
2021/08/09 05:16:43;;;;;;;23.35;9.18;;;;;;;;;;5137727;27;20120;-71
2021/08/09 05:19:11;;;;;;;26.15;8.55;;;;;;;;;;5102903;28;20040;-71
2021/08/09 05:21:47;;;;;;;21.13;8.38;;;;;;;;;;5098266;28;20117;-71
2021/08/09 05:24:14;;;;;;;28.23;10.20;;;;;;;;;;5104225;28;20081;-71
2021/08/09 05:26:41;;;;;;;30.50;10.63;;;;;;;;;;5099197;28;20036;-71
2021/08/09 05:29:07;;;;;;;34.25;11.20;;;;;;;;;;5110291;28;20051;-71
2021/08/09 05:31:39;;;;;;;29.73;10.80;;;;;;;;;;5109554;28;20183;-71
2021/08/09 05:34:06;;;;;;;33.83;11.43;;;;;;;;;;5108020;28;20050;-71
2021/08/09 05:36:32;;;;;;;27.52;10.95;;;;;;;;;;5105474;28;20176;-71
2021/08/09 05:39:00;;;;;;;37.88;12.23;;;;;;;;;;5129610;27;20172;-71
2021/08/09 05:41:28;;;;;;;33.45;12.85;;;;;;;;;;5108062;28;20043;-71
2021/08/09 05:43:55;;;;;;;25.83;12.15;;;;;;;;;;5109087;28;20093;-71
2021/08/09 05:46:21;;;;;;;31.27;12.82;;;;;;;;;;5107933;28;20422;-71
2021/08/09 05:48:47;;;;;;;33.83;13.18;;;;;;;;;;5105520;28;20173;-71
2021/08/09 05:51:13;;;;;;;38.22;13.63;;;;;;;;;;5105610;28;20048;-71
2021/08/09 05:53:40;;;;;;;39.47;13.82;;;;;;;;;;5105882;28;20376;-71
2021/08/09 05:56:06;;;;;;;37.92;13.05;;;;;;;;;;5100678;28;20151;-71
2021/08/09 05:58:33;;;;;;;36.83;13.32;;;;;;;;;;5105566;28;20457;-71
2021/08/09 06:00:59;;;;;;;37.60;12.70;;;;;;;;;;5133846;27;20146;-71
2021/08/09 06:03:25;;;;;;;36.38;13.02;;;;;;;;;;5104173;28;20123;-71
2021/08/09 06:05:53;;;;;;;34.50;12.00;;;;;;;;;;5104306;28;20048;-71
2021/08/09 06:08:20;;;;;;;36.88;11.50;;;;;;;;;;5105017;28;20044;-71
2021/08/09 06:10:46;;;;;;;37.92;12.13;;;;;;;;;;5105356;28;20051;-71
2021/08/09 06:13:12;;;;;;;35.83;12.52;;;;;;;;;;5103481;28;20479;-71
2021/08/09 06:15:38;;;;;;;37.30;10.77;;;;;;;;;;5104178;28;20404;-71
2021/08/09 06:18:05;;;;;;;34.13;10.57;;;;;;;;;;5108151;28;20115;-72
2021/08/09 06:20:31;;;;;;;38.95;11.70;;;;;;;;;;5104641;28;20035;-71
2021/08/09 06:22:58;;;;;;;29.67;9.98;;;;;;;;;;5104915;28;20067;-77
2021/08/09 06:25:25;;;;;;;30.90;9.15;;;;;;;;;;5132335;27;20075;-76
2021/08/09 06:27:51;;;;;;;34.13;9.43;;;;;;;;;;5125482;27;20451;-77
2021/08/09 06:30:18;;;;;;;34.60;10.40;;;;;;;;;;5102713;28;20079;-76
2021/08/09 06:32:44;;;;;;;31.60;10.45;;;;;;;;;;5103850;28;20051;-76
2021/08/09 06:35:11;;;;;;;34.55;10.80;;;;;;;;;;5103494;28;20040;-77
2021/08/09 06:37:37;;;;;;;27.05;10.10;;;;;;;;;;5105824;28;20452;-75
2021/08/09 06:40:04;;;;;;;28.52;9.68;;;;;;;;;;5129582;27;20372;-75
2021/08/09 06:42:30;;;;;;;33.33;9.38;;;;;;;;;;5107827;28;20077;-75
2021/08/09 06:44:56;;;;;;;33.40;10.00;;;;;;;;;;5107877;28;20036;-75
2021/08/09 06:47:24;;;;;;;29.92;9.57;;;;;;;;;;5108769;28;20048;-75
2021/08/09 06:49:50;;;;;;;35.13;9.95;;;;;;;;;;5108846;28;20043;-76
2021/08/09 06:52:18;;;;;;;37.13;9.65;;;;;;;;;;5109018;28;20738;-75
2021/08/09 06:54:46;;;;;;;36.25;9.80;;;;;;;;;;5101958;28;20059;-75
2021/08/09 06:57:12;;;;;;;25.48;8.98;;;;;;;;;;5102034;28;20051;-76
2021/08/09 06:59:38;;;;;;;28.48;9.30;;;;;;;;;;5101198;28;20135;-75
2021/08/09 07:02:06;;;;;;;32.58;10.23;;;;;;;;;;5101335;28;20072;-75
2021/08/09 07:04:33;;;;;;;34.60;10.15;;;;;;;;;;5102745;28;20487;-75
2021/08/09 07:06:59;;;;;;;35.75;9.57;;;;;;;;;;5106047;28;20047;-76
2021/08/09 07:09:25;;;;;;;26.92;9.30;;;;;;;;;;5100219;28;20056;-76
2021/08/09 07:11:51;;;;;;;29.33;9.68;;;;;;;;;;5104199;28;20121;-76
2021/08/09 07:14:20;;;;;;;31.75;9.43;;;;;;;;;;5109660;27;20048;-76
2021/08/09 07:16:46;;;;;;;26.98;9.98;;;;;;;;;;5113024;28;20087;-76
2021/08/09 07:19:13;;;;;;;28.42;9.68;;;;;;;;;;5113361;27;20118;-75
2021/08/09 07:21:39;;;;;;;26.45;9.55;;;;;;;;;;5104813;28;20036;-75
2021/08/09 07:24:05;;;;;;;28.73;10.77;;;;;;;;;;5110212;28;20059;-76
2021/08/09 07:26:32;;;;;;;31.05;9.27;;;;;;;;;;5102661;27;20040;-76
2021/08/09 07:28:59;;;;;;;28.13;10.15;;;;;;;;;;5102348;27;20092;-75
2021/08/09 07:31:25;;;;;;;35.63;11.15;;;;;;;;;;5105535;28;20062;-75
2021/08/09 07:33:52;;;;;;;22.52;8.95;;;;;;;;;;5108308;27;20051;-75
2021/08/09 07:36:18;;;;;;;35.80;10.00;;;;;;;;;;5101807;28;20035;-75
2021/08/09 07:38:44;;;;;;;28.48;9.05;;;;;;;;;;5097132;28;20050;-76
2021/08/09 07:41:11;;;;;;;27.45;8.88;;;;;;;;;;5099260;28;20036;-75
2021/08/09 07:43:38;;;;;;;23.92;9.48;;;;;;;;;;5094012;27;20066;-75
2021/08/09 07:46:04;;;;;;;30.33;9.43;;;;;;;;;;5103569;27;20067;-75
2021/08/09 07:48:31;;;;;;;24.60;9.18;;;;;;;;;;5102810;28;20043;-75
2021/08/09 07:50:57;;;;;;;32.88;9.70;;;;;;;;;;5098861;28;20116;-75
2021/08/09 07:53:23;;;;;;;29.55;9.82;;;;;;;;;;5106015;28;20380;-75
2021/08/09 07:55:50;;;;;;;27.05;9.02;;;;;;;;;;5104256;28;20036;-75
2021/08/09 07:58:16;;;;;;;31.90;9.25;;;;;;;;;;5109194;28;20071;-75
2021/08/09 08:00:42;;;;;;;27.98;8.38;;;;;;;;;;5104151;28;20147;-72
2021/08/09 08:03:09;;;;;;;31.42;8.95;;;;;;;;;;5100615;27;20080;-76
2021/08/09 08:05:35;;;;;;;30.70;10.18;;;;;;;;;;5104389;28;20054;-75
2021/08/09 08:08:01;;;;;;;23.90;8.05;;;;;;;;;;5103529;28;20841;-75
2021/08/09 08:10:28;;;;;;;28.67;8.50;;;;;;;;;;5103150;28;20126;-75
2021/08/09 08:12:54;;;;;;;27.08;8.88;;;;;;;;;;5099934;28;20040;-75
2021/08/09 08:15:20;;;;;;;28.75;9.25;;;;;;;;;;5100111;28;20031;-74
2021/08/09 08:17:46;;;;;;;21.88;7.50;;;;;;;;;;5095104;28;20052;-74
2021/08/09 08:20:13;;;;;;;27.55;8.40;;;;;;;;;;5098743;28;20040;-74
2021/08/09 08:22:39;;;;;;;28.75;8.50;;;;;;;;;;5101789;28;20043;-76
2021/08/09 08:25:06;;;;;;;21.20;8.50;;;;;;;;;;5098076;28;20054;-75
2021/08/09 08:27:32;;;;;;;30.42;9.38;;;;;;;;;;5101375;28;20051;-76
2021/08/09 08:29:58;;;;;;;21.45;8.63;;;;;;;;;;5094845;28;20043;-75
2021/08/09 08:32:25;;;;;;;24.80;8.45;;;;;;;;;;5097226;28;20059;-76
2021/08/09 08:34:52;;;;;;;30.02;9.00;;;;;;;;;;5105453;28;20040;-76
2021/08/09 08:37:18;;;;;;;26.15;8.68;;;;;;;;;;5100314;28;20079;-75
2021/08/09 08:39:44;;;;;;;23.98;8.18;;;;;;;;;;5103162;28;20079;-75
2021/08/09 08:42:13;;;;;;;25.95;7.97;;;;;;;;;;5102712;28;20036;-75
2021/08/09 08:44:39;;;;;;;25.63;10.05;;;;;;;;;;5097089;27;20036;-75
2021/08/09 08:47:07;;;;;;;31.20;6.95;;;;;;;;;;5099432;28;20071;-76
2021/08/09 08:49:33;;;;;;;25.67;7.30;;;;;;;;;;5104101;28;20044;-76
2021/08/09 08:51:59;;;;;;;22.48;7.38;;;;;;;;;;5098204;28;20467;-76
2021/08/09 08:54:26;;;;;;;25.25;6.93;;;;;;;;;;5107431;28;20078;-76
2021/08/09 08:56:53;;;;;;;24.95;6.43;;;;;;;;;;5129086;27;20396;-76
2021/08/09 08:59:19;;;;;;;18.60;5.78;;;;;;;;;;5103203;28;20494;-76
2021/08/09 09:01:46;;;;;;;20.30;5.80;;;;;;;;;;5106618;28;20422;-76
2021/08/09 09:04:19;;;;;;;22.23;5.72;;;;;;;;;;5106089;28;20475;-76
2021/08/09 09:06:45;;;;;;;25.80;5.45;;;;;;;;;;5103924;28;20061;-76
2021/08/09 09:09:22;;;;;;;18.58;5.20;;;;;;;;;;5104467;28;20040;-76
2021/08/09 09:11:49;;;;;;;17.92;4.40;;;;;;;;;;5103323;28;20420;-86
2021/08/09 09:14:23;;;;;;;20.58;5.05;;;;;;;;;;5100043;27;20047;-76
2021/08/09 09:16:50;;;;;;;16.73;5.03;;;;;;;;;;5101913;28;20089;-76
2021/08/09 09:19:38;;;;;;;18.75;4.72;;;;;;;;;;5101527;28;20105;-76
2021/08/09 09:22:07;;;;;;;16.17;4.63;;;;;;;;;;5094510;27;20036;-75
2021/08/09 09:24:33;;;;;;;14.93;4.35;;;;;;;;;;5098961;28;20071;-75
2021/08/09 09:27:02;;;;;;;20.50;5.30;;;;;;;;;;5103624;28;20043;-79
2021/08/09 09:29:37;;;;;;;16.75;4.65;;;;;;;;;;5101774;28;20040;-75
2021/08/09 09:32:15;;;;;;;17.45;4.03;;;;;;;;;;5101302;28;20090;-76
2021/08/09 09:34:49;;;;;;;17.92;4.53;;;;;;;;;;5097254;28;20040;-75
2021/08/09 09:37:24;;;;;;;17.90;4.65;;;;;;;;;;5102146;27;20039;-75
2021/08/09 09:39:50;;;;;;;19.10;3.67;;;;;;;;;;5102499;27;20503;-75
2021/08/09 09:42:17;;;;;;;13.32;3.83;;;;;;;;;;5103787;27;20047;-75
2021/08/09 09:44:44;;;;;;;21.08;4.05;;;;;;;;;;5101130;28;20048;-75
2021/08/09 09:47:18;;;;;;;12.07;3.90;;;;;;;;;;5102940;28;20054;-75
2021/08/09 09:49:44;;;;;;;15.02;3.58;;;;;;;;;;5099801;28;20047;-75
2021/08/09 09:52:28;;;;;;;16.40;3.63;;;;;;;;;;5102603;28;20043;-75
2021/08/09 09:54:54;;;;;;;9.90;2.58;;;;;;;;;;5104078;28;20058;-75
2021/08/09 09:57:21;;;;;;;16.85;3.95;;;;;;;;;;5107587;28;20047;-75
2021/08/09 09:59:47;;;;;;;13.18;3.17;;;;;;;;;;5105594;28;20054;-75
2021/08/09 10:02:13;;;;;;;9.00;2.88;;;;;;;;;;5104647;28;20085;-75
2021/08/09 10:04:40;;;;;;;12.52;2.70;;;;;;;;;;5103144;28;20047;-75
2021/08/09 10:07:08;;;;;;;14.52;2.70;;;;;;;;;;5099963;28;20076;-75
2021/08/09 10:09:36;;;;;;;12.05;2.83;;;;;;;;;;5100892;28;20482;-75
2021/08/09 10:12:04;;;;;;;9.63;3.00;;;;;;;;;;5096549;28;20071;-75
2021/08/09 10:14:32;;;;;;;13.40;2.67;;;;;;;;;;5106544;28;20067;-75
2021/08/09 10:16:58;;;;;;;10.52;2.30;;;;;;;;;;5104102;28;20035;-75
2021/08/09 10:19:24;;;;;;;11.30;2.55;;;;;;;;;;5102768;28;20119;-75
2021/08/09 10:21:51;;;;;;;12.63;2.60;;;;;;;;;;5102125;28;20113;-75
2021/08/09 10:24:37;;;;;;;9.00;2.92;;;;;;;;;;5104536;28;20063;-75
2021/08/09 10:27:03;;;;;;;10.00;2.83;;;;;;;;;;5102367;28;20817;-75
2021/08/09 10:29:29;;;;;;;10.13;2.42;;;;;;;;;;5105636;28;20429;-75
2021/08/09 10:32:15;;;;;;;9.15;3.05;;;;;;;;;;5132367;27;20040;-75
2021/08/09 10:34:42;;;;;;;9.27;2.65;;;;;;;;;;5103318;28;20055;-74
2021/08/09 10:37:09;;;;;;;10.48;2.97;;;;;;;;;;5101518;28;20424;-75
2021/08/09 10:39:53;;;;;;;7.57;2.88;;;;;;;;;;5104780;28;20044;-75
2021/08/09 10:42:27;;;;;;;7.03;1.88;;;;;;;;;;5102560;28;20527;-75
2021/08/09 10:44:54;;;;;;;6.43;1.90;;;;;;;;;;5104464;28;20040;-75
2021/08/09 10:47:39;;;;;;;4.53;1.08;;;;;;;;;;5098931;28;20085;-75
2021/08/09 10:50:05;;;;;;;5.55;1.55;;;;;;;;;;5099537;28;20039;-75
2021/08/09 10:52:32;;;;;;;7.28;1.92;;;;;;;;;;5105238;28;20054;-75
2021/08/09 10:55:18;;;;;;;6.45;1.77;;;;;;;;;;5107010;27;20069;-74
2021/08/09 10:57:45;;;;;;;4.30;1.77;;;;;;;;;;5107120;27;20126;-75
2021/08/09 11:00:12;;;;;;;7.88;1.88;;;;;;;;;;5137141;27;20115;-75
2021/08/09 11:02:58;;;;;;;6.75;1.75;;;;;;;;;;5103948;27;20039;-74
2021/08/09 11:05:24;;;;;;;5.80;1.98;;;;;;;;;;5110905;27;20051;-79
2021/08/09 11:08:10;;;;;;;6.35;1.70;;;;;;;;;;5107683;28;20032;-76
2021/08/09 11:10:57;;;;;;;5.88;1.98;;;;;;;;;;5102864;28;20043;-77
2021/08/09 11:13:23;;;;;;;9.52;1.83;;;;;;;;;;5107581;27;20067;-77
2021/08/09 11:15:56;;;;;;;5.03;1.83;;;;;;;;;;5107448;27;20044;-77
2021/08/09 11:18:22;;;;;;;5.93;1.50;;;;;;;;;;5106092;27;20043;-77
2021/08/09 11:20:48;;;;;;;4.57;1.27;;;;;;;;;;5106142;28;20431;-77
2021/08/09 11:23:15;;;;;;;5.32;1.70;;;;;;;;;;5107904;28;20051;-77
2021/08/09 11:25:44;;;;;;;6.72;2.03;;;;;;;;;;5109923;28;20039;-77
2021/08/09 11:28:13;;;;;;;6.75;1.92;;;;;;;;;;5106059;28;20502;-77
2021/08/09 11:30:41;;;;;;;5.88;1.73;;;;;;;;;;5108785;28;20040;-77
2021/08/09 11:33:08;;;;;;;7.50;1.90;;;;;;;;;;5105093;28;20082;-77
2021/08/09 11:35:42;;;;;;;7.38;2.03;;;;;;;;;;5108236;28;20032;-76
2021/08/09 11:38:09;;;;;;;7.28;1.83;;;;;;;;;;5105812;28;20109;-74
2021/08/09 11:40:36;;;;;;;7.00;1.77;;;;;;;;;;5106892;28;20512;-74
2021/08/09 11:43:03;;;;;;;5.13;1.67;;;;;;;;;;5099790;28;20503;-72
2021/08/09 11:45:29;;;;;;;5.30;1.95;;;;;;;;;;5099926;28;20468;-74
2021/08/09 11:47:56;;;;;;;13.27;2.13;;;;;;;;;;5100729;28;20104;-72
2021/08/09 11:50:24;;;;;;;7.43;1.70;;;;;;;;;;5097289;27;20152;-74
2021/08/09 11:52:52;;;;;;;7.38;1.88;;;;;;;;;;5104838;28;20048;-73
2021/08/09 11:55:19;;;;;;;6.65;1.90;;;;;;;;;;5104971;28;20137;-73
2021/08/09 11:57:48;;;;;;;8.30;1.88;;;;;;;;;;5102374;28;20044;-76
2021/08/09 12:00:15;;;;;;;4.90;1.63;;;;;;;;;;5098133;27;20070;-75
2021/08/09 12:03:00;;;;;;;4.93;1.92;;;;;;;;;;5105689;27;20051;-73
2021/08/09 12:05:26;;;;;;;7.03;2.13;;;;;;;;;;5104331;28;20479;-72
2021/08/09 12:08:03;;;;;;;7.40;2.30;;;;;;;;;;5101210;28;20184;-73
2021/08/09 12:10:29;;;;;;;6.78;2.13;;;;;;;;;;5099968;28;20074;-73
2021/08/09 12:12:55;;;;;;;8.77;2.03;;;;;;;;;;5096588;28;20109;-73
2021/08/09 12:15:23;;;;;;;7.60;2.00;;;;;;;;;;5105316;28;20039;-73
2021/08/09 12:18:06;;;;;;;9.98;2.28;;;;;;;;;;5096728;28;20040;-73
2021/08/09 12:20:33;;;;;;;9.45;2.50;;;;;;;;;;5094648;28;20040;-73
2021/08/09 12:23:00;;;;;;;8.50;2.38;;;;;;;;;;5098372;28;20061;-73
2021/08/09 12:25:40;;;;;;;8.40;2.25;;;;;;;;;;5123463;27;20071;-73
2021/08/09 12:28:07;;;;;;;9.63;2.92;;;;;;;;;;5097578;28;20044;-73
2021/08/09 12:30:50;;;;;;;10.75;2.35;;;;;;;;;;5093633;28;20039;-73
2021/08/09 12:33:16;;;;;;;7.45;2.40;;;;;;;;;;5098876;27;20083;-73
2021/08/09 12:35:42;;;;;;;7.93;2.08;;;;;;;;;;5099494;28;20043;-73
2021/08/09 12:38:10;;;;;;;8.75;2.72;;;;;;;;;;5096078;27;20246;-72
2021/08/09 12:40:38;;;;;;;8.55;2.25;;;;;;;;;;5094920;28;20036;-72
2021/08/09 12:43:06;;;;;;;10.60;2.33;;;;;;;;;;5099169;27;20114;-72
2021/08/09 12:45:33;;;;;;;8.00;2.03;;;;;;;;;;5128529;27;20047;-73
2021/08/09 12:47:59;;;;;;;10.43;3.03;;;;;;;;;;5092628;28;20105;-72
2021/08/09 12:50:25;;;;;;;9.25;2.40;;;;;;;;;;5096778;27;20037;-72
2021/08/09 12:52:51;;;;;;;7.03;2.05;;;;;;;;;;5099876;27;20071;-72
2021/08/09 12:55:18;;;;;;;8.90;2.45;;;;;;;;;;5100608;28;20062;-72
2021/08/09 12:57:44;;;;;;;7.20;1.92;;;;;;;;;;5125166;27;20523;-72
2021/08/09 13:00:11;;;;;;;6.80;2.10;;;;;;;;;;5096485;28;20415;-72
2021/08/09 13:02:38;;;;;;;8.73;2.53;;;;;;;;;;5094659;28;20040;-72
2021/08/09 13:05:05;;;;;;;8.15;3.15;;;;;;;;;;5092101;28;20113;-71
2021/08/09 13:07:32;;;;;;;10.20;3.05;;;;;;;;;;5094587;27;20051;-71
2021/08/09 13:09:58;;;;;;;7.20;2.85;;;;;;;;;;5102190;27;20046;-71
2021/08/09 13:12:24;;;;;;;7.13;2.85;;;;;;;;;;5098547;27;20725;-71
2021/08/09 13:14:52;;;;;;;8.63;2.50;;;;;;;;;;5096207;28;20058;-72
2021/08/09 13:17:18;;;;;;;9.52;3.22;;;;;;;;;;5092365;27;20035;-71
2021/08/09 13:19:44;;;;;;;10.80;4.32;;;;;;;;;;5094009;27;20048;-71
2021/08/09 13:22:11;;;;;;;12.02;4.78;;;;;;;;;;5097103;28;20047;-71
2021/08/09 13:24:37;;;;;;;8.23;4.55;;;;;;;;;;5096109;28;20754;-71
2021/08/09 13:27:03;;;;;;;12.73;4.53;;;;;;;;;;5101044;27;20043;-71
2021/08/09 13:29:29;;;;;;;11.98;4.55;;;;;;;;;;5098238;27;20048;-71
2021/08/09 13:31:56;;;;;;;20.40;5.88;;;;;;;;;;5090084;28;20459;-71
2021/08/09 13:34:22;;;;;;;12.32;5.18;;;;;;;;;;5093860;28;20137;-71
2021/08/09 13:36:48;;;;;;;10.73;4.25;;;;;;;;;;5094548;28;20128;-71
2021/08/09 13:39:14;;;;;;;10.40;4.30;;;;;;;;;;5094012;28;20123;-71
2021/08/09 13:41:41;;;;;;;12.05;4.43;;;;;;;;;;5095140;28;20119;-71
2021/08/09 13:44:07;;;;;;;9.85;4.20;;;;;;;;;;5094676;28;20044;-71
2021/08/09 13:46:33;;;;;;;11.15;4.60;;;;;;;;;;5093442;28;20051;-71
2021/08/09 13:49:00;;;;;;;12.82;4.13;;;;;;;;;;5091997;28;20088;-71
2021/08/09 13:51:28;;;;;;;13.98;3.80;;;;;;;;;;5095234;28;20047;-71
2021/08/09 13:53:54;;;;;;;7.80;3.28;;;;;;;;;;5093681;28;20118;-71
2021/08/09 13:56:20;;;;;;;6.28;3.45;;;;;;;;;;5094876;28;20051;-71
2021/08/09 13:58:46;;;;;;;9.52;3.53;;;;;;;;;;5091480;28;20118;-71
2021/08/09 14:01:14;;;;;;;7.13;3.30;;;;;;;;;;5091927;28;20129;-71
2021/08/09 14:03:40;;;;;;;22.25;4.25;;;;;;;;;;5090627;28;20044;-71
2021/08/09 14:06:08;;;;;;;21.05;5.35;;;;;;;;;;5094871;28;20499;-71
2021/08/09 14:08:35;;;;;;;7.50;2.30;;;;;;;;;;5097307;28;20115;-71
2021/08/09 14:11:02;;;;;;;10.32;2.08;;;;;;;;;;5097027;27;20055;-71
2021/08/09 14:13:29;;;;;;;8.35;2.13;;;;;;;;;;5098935;28;20463;-71
2021/08/09 14:15:56;;;;;;;37.67;4.18;;;;;;;;;;5096517;28;20089;-72
2021/08/09 14:18:23;;;;;;;4.22;1.90;;;;;;;;;;5097736;28;20043;-71
2021/08/09 14:20:49;;;;;;;67.70;6.63;;;;;;;;;;5092342;27;20495;-70
2021/08/09 14:23:16;;;;;;;15.93;3.90;;;;;;;;;;5091061;28;20044;-69
2021/08/09 14:25:42;;;;;;;16.40;3.08;;;;;;;;;;5098188;28;20092;-69
2021/08/09 14:28:08;;;;;;;5.20;2.38;;;;;;;;;;5103693;28;20032;-69
2021/08/09 14:30:34;;;;;;;8.55;2.97;;;;;;;;;;5102348;28;20040;-69
2021/08/09 14:33:02;;;;;;;6.47;3.40;;;;;;;;;;5093634;28;20052;-69
2021/08/09 14:35:29;;;;;;;4.90;2.45;;;;;;;;;;5091545;28;20455;-69